createdAt,value
2024-02-29T00:00:01.329Z,0.6
2024-02-29T00:01:01.838Z,0.6
2024-02-29T00:02:01.305Z,0.6
2024-02-29T00:03:01.234Z,0.8
2024-02-29T00:04:01.560Z,0.7
2024-02-29T00:05:01.128Z,0.7
2024-02-29T00:06:01.193Z,0.7
2024-02-29T00:07:01.457Z,0.8
2024-02-29T00:08:01.100Z,0.8
2024-02-29T00:09:01.198Z,0.8
2024-02-29T00:10:01.574Z,0.8
2024-02-29T00:11:01.167Z,0.9
2024-02-29T00:12:01.722Z,0.9
2024-02-29T00:14:01.254Z,0.9
2024-02-29T00:15:01.224Z,0.9
2024-02-29T00:16:01.476Z,0.8
2024-02-29T00:17:01.158Z,0.8
2024-02-29T00:18:01.495Z,0.8
2024-02-29T00:19:01.309Z,0.8
2024-02-29T00:21:01.151Z,0.9
2024-02-29T00:22:01.480Z,0.9
2024-02-29T00:23:01.140Z,0.8
2024-02-29T00:24:01.187Z,0.8
2024-02-29T00:25:01.585Z,0.7
2024-02-29T00:26:01.199Z,0.6
2024-02-29T00:27:01.216Z,0.6
2024-02-29T00:28:01.882Z,0.6
2024-02-29T00:30:01.344Z,0.5
2024-02-29T00:31:01.409Z,0.6
2024-02-29T00:32:01.119Z,0.4
2024-02-29T00:33:01.388Z,0.5
2024-02-29T00:34:01.602Z,0.4
2024-02-29T00:35:01.369Z,0.4
2024-02-29T00:36:11.323Z,0.4
2024-02-29T00:38:01.133Z,0.4
2024-02-29T00:39:16.197Z,0.4
2024-02-29T00:41:01.157Z,0.4
2024-02-29T00:42:01.141Z,0.5
2024-02-29T00:43:01.534Z,0.6
2024-02-29T00:45:01.177Z,0.7
2024-02-29T00:46:01.512Z,0.7
2024-02-29T00:47:01.246Z,1
2024-02-29T00:48:01.496Z,1.1
2024-02-29T00:49:01.490Z,1.1
2024-02-29T00:50:01.240Z,1.1
2024-02-29T00:51:01.190Z,1.1
2024-02-29T00:52:01.443Z,1.1
2024-02-29T00:53:01.102Z,1.1
2024-02-29T00:54:01.154Z,1.1
2024-02-29T00:55:01.617Z,1
2024-02-29T00:56:01.121Z,0.9
2024-02-29T00:57:01.239Z,0.9
2024-02-29T00:58:01.460Z,0.8
2024-02-29T00:59:01.105Z,0.8
2024-02-29T01:00:01.392Z,0.7
2024-02-29T01:01:01.590Z,0.6
2024-02-29T01:02:01.769Z,0.6
2024-02-29T01:04:01.804Z,0.6
2024-02-29T01:05:01.117Z,0.6
2024-02-29T01:06:01.181Z,0.6
2024-02-29T01:07:01.538Z,0.5
2024-02-29T01:08:01.116Z,0.5
2024-02-29T01:09:01.213Z,0.4
2024-02-29T01:10:01.891Z,0.5
2024-02-29T01:12:01.187Z,0.2
2024-02-29T01:13:01.348Z,0.2
2024-02-29T01:15:01.230Z,0.2
2024-02-29T01:16:01.538Z,0.2
2024-02-29T01:18:01.484Z,0.2
2024-02-29T01:19:01.550Z,0.2
2024-02-29T01:20:01.085Z,0.2
2024-02-29T01:21:01.122Z,0.2
2024-02-29T01:22:01.498Z,0.1
2024-02-29T01:23:01.120Z,0.2
2024-02-29T01:24:01.238Z,0.1
2024-02-29T01:25:01.490Z,0.1
2024-02-29T01:27:01.183Z,0.1
2024-02-29T01:28:01.466Z,0.1
2024-02-29T01:29:01.129Z,0.1
2024-02-29T01:30:01.296Z,0.1
2024-02-29T01:31:01.570Z,0.1
2024-02-29T01:32:33.715Z,0.1
2024-02-29T01:34:01.482Z,0.1
2024-02-29T01:35:01.428Z,0.1
2024-02-29T01:36:01.237Z,0.1
2024-02-29T01:37:01.360Z,0.1
2024-02-29T01:38:01.107Z,0.1
2024-02-29T01:39:01.151Z,0.1
2024-02-29T01:40:01.638Z,0.1
2024-02-29T01:42:01.199Z,0.2
2024-02-29T01:43:01.524Z,0.2
2024-02-29T01:44:01.111Z,0.2
2024-02-29T01:45:01.323Z,0.2
2024-02-29T01:46:01.451Z,0.2
2024-02-29T01:47:01.094Z,0.2
2024-02-29T01:48:01.544Z,0.4
2024-02-29T01:49:01.225Z,0.4
2024-02-29T01:50:01.365Z,0.4
2024-02-29T01:52:01.507Z,0.3
2024-02-29T01:53:01.145Z,0.2
2024-02-29T01:54:01.169Z,0.3
2024-02-29T01:55:01.609Z,0.4
2024-02-29T01:56:01.056Z,0.4
2024-02-29T01:57:01.170Z,0.4
2024-02-29T01:58:01.434Z,0.4
2024-02-29T02:00:01.244Z,0.3
2024-02-29T02:01:01.752Z,0.2
2024-02-29T02:02:01.501Z,0.2
2024-02-29T02:04:01.580Z,0.2
2024-02-29T02:05:01.383Z,0.2
2024-02-29T02:06:01.178Z,0.2
2024-02-29T02:07:01.476Z,0.2
2024-02-29T02:08:01.080Z,0.2
2024-02-29T02:09:01.200Z,0.2
2024-02-29T02:10:01.599Z,0.2
2024-02-29T02:11:01.455Z,0.1
2024-02-29T02:12:01.179Z,0.1
2024-02-29T02:13:01.650Z,0.2
2024-02-29T02:15:01.218Z,0.2
2024-02-29T02:16:01.865Z,0.1
2024-02-29T02:18:01.536Z,-0.1
2024-02-29T02:19:01.309Z,0
2024-02-29T02:21:01.238Z,0.1
2024-02-29T02:22:01.500Z,0.1
2024-02-29T02:24:01.211Z,0
2024-02-29T02:25:01.558Z,-0.1
2024-02-29T02:26:01.158Z,-0.1
2024-02-29T02:27:01.189Z,-0.1
2024-02-29T02:28:01.606Z,-0.1
2024-02-29T02:29:01.125Z,-0.2
2024-02-29T02:30:01.275Z,-0.1
2024-02-29T02:31:01.551Z,-0.1
2024-02-29T02:33:01.548Z,0.1
2024-02-29T02:34:01.396Z,0.1
2024-02-29T02:36:01.279Z,0.2
2024-02-29T02:37:01.344Z,0.4
2024-02-29T02:38:01.126Z,0.3
2024-02-29T02:39:01.210Z,0.3
2024-02-29T02:40:01.784Z,0.5
2024-02-29T02:42:01.253Z,0.5
2024-02-29T02:43:01.502Z,0.6
2024-02-29T02:45:01.488Z,0.5
2024-02-29T02:46:01.318Z,0.5
2024-02-29T02:47:01.117Z,0.7
2024-02-29T02:48:01.500Z,0.7
2024-02-29T02:49:01.364Z,0.8
2024-02-29T02:50:01.245Z,0.6
2024-02-29T02:51:01.568Z,0.7
2024-02-29T02:52:01.452Z,0.6
2024-02-29T02:53:01.252Z,0.6
2024-02-29T02:54:01.271Z,0.6
2024-02-29T02:55:01.858Z,0.6
2024-02-29T02:57:01.193Z,0.5
2024-02-29T02:58:01.490Z,0.5
2024-02-29T03:00:01.342Z,0.5
2024-02-29T03:01:01.336Z,0.4
2024-02-29T03:02:01.434Z,0.3
2024-02-29T03:03:01.284Z,0.2
2024-02-29T03:04:01.603Z,0.3
2024-02-29T03:06:01.201Z,0.2
2024-02-29T03:07:01.567Z,0.2
2024-02-29T03:08:01.114Z,0.2
2024-02-29T03:09:01.137Z,0.2
2024-02-29T03:10:01.572Z,0.3
2024-02-29T03:11:01.286Z,0.2
2024-02-29T03:13:01.603Z,0.3
2024-02-29T03:15:01.312Z,0.3
2024-02-29T03:16:01.407Z,0.2
2024-02-29T03:17:01.160Z,0.2
2024-02-29T03:18:02.249Z,0.3
2024-02-29T03:20:01.300Z,0.3
2024-02-29T03:22:01.389Z,0.2
2024-02-29T03:23:01.106Z,0.3
2024-02-29T03:24:01.154Z,0.3
2024-02-29T03:25:01.777Z,0.3
2024-02-29T03:27:01.192Z,0.1
2024-02-29T03:28:01.363Z,0.1
2024-02-29T03:29:01.152Z,0.1
2024-02-29T03:30:01.292Z,0
2024-02-29T03:31:01.400Z,0
2024-02-29T03:32:01.144Z,0
2024-02-29T03:33:01.467Z,-0.1
2024-02-29T03:34:01.488Z,0.1
2024-02-29T03:35:01.232Z,-0.1
2024-02-29T03:36:01.310Z,-0.1
2024-02-29T03:37:01.325Z,-0.1
2024-02-29T03:38:01.176Z,-0.1
2024-02-29T03:39:01.247Z,-0.1
2024-02-29T03:40:01.630Z,-0.1
2024-02-29T03:41:01.108Z,-0.2
2024-02-29T03:42:01.172Z,-0.2
2024-02-29T03:43:01.531Z,-0.2
2024-02-29T03:44:01.096Z,-0.2
2024-02-29T03:45:01.195Z,-0.2
2024-02-29T03:46:01.555Z,-0.2
2024-02-29T03:47:01.116Z,-0.3
2024-02-29T03:48:01.362Z,-0.4
2024-02-29T03:49:01.780Z,-0.3
2024-02-29T03:51:01.206Z,-0.1
2024-02-29T03:52:01.383Z,-0.1
2024-02-29T03:53:01.133Z,-0.1
2024-02-29T03:54:01.162Z,-0.1
2024-02-29T03:55:01.707Z,-0.1
2024-02-29T03:56:01.073Z,-0.1
2024-02-29T03:57:01.184Z,-0.1
2024-02-29T03:58:01.584Z,0
2024-02-29T03:59:01.112Z,-0.1
2024-02-29T04:00:01.326Z,-0.1
2024-02-29T04:01:01.569Z,-0.2
2024-02-29T04:02:01.838Z,-0.1
2024-02-29T04:04:01.455Z,0
2024-02-29T04:05:01.195Z,0
2024-02-29T04:06:01.171Z,0
2024-02-29T04:07:01.466Z,0
2024-02-29T04:08:01.090Z,0
2024-02-29T04:09:01.142Z,0.1
2024-02-29T04:10:01.621Z,-0.1
2024-02-29T04:11:01.349Z,0.1
2024-02-29T04:12:01.217Z,0
2024-02-29T04:13:01.520Z,0.1
2024-02-29T04:14:01.115Z,0.1
2024-02-29T04:15:01.121Z,0.2
2024-02-29T04:16:01.528Z,0.2
2024-02-29T04:17:01.102Z,0.3
2024-02-29T04:18:01.560Z,0.2
2024-02-29T04:20:01.268Z,0.2
2024-02-29T04:21:01.179Z,0.3
2024-02-29T04:22:01.685Z,0.2
2024-02-29T04:23:01.226Z,0.3
2024-02-29T04:24:01.168Z,0.3
2024-02-29T04:25:01.453Z,0.2
2024-02-29T04:26:01.186Z,0.3
2024-02-29T04:27:01.241Z,0.3
2024-02-29T04:28:01.599Z,0.2
2024-02-29T04:30:01.224Z,0.2
2024-02-29T04:31:01.374Z,0.3
2024-02-29T04:32:01.559Z,0.2
2024-02-29T04:33:01.412Z,0.2
2024-02-29T04:34:01.393Z,0.2
2024-02-29T04:35:01.130Z,0.3
2024-02-29T04:36:01.246Z,0.3
2024-02-29T04:37:01.259Z,0.3
2024-02-29T04:38:01.156Z,0.3
2024-02-29T04:39:01.195Z,0.2
2024-02-29T04:40:01.730Z,0.2
2024-02-29T04:41:01.090Z,0.2
2024-02-29T04:42:01.206Z,0.2
2024-02-29T04:43:01.404Z,0.2
2024-02-29T04:44:01.131Z,0.2
2024-02-29T04:45:01.217Z,0.1
2024-02-29T04:46:01.627Z,0.1
2024-02-29T04:47:01.218Z,0.1
2024-02-29T04:48:01.439Z,0.1
2024-02-29T04:49:01.425Z,-0.1
2024-02-29T04:50:01.200Z,-0.1
2024-02-29T04:51:01.204Z,0.1
2024-02-29T04:52:01.397Z,0.1
2024-02-29T04:54:01.202Z,-0.1
2024-02-29T04:55:01.856Z,-0.1
2024-02-29T04:56:01.104Z,-0.1
2024-02-29T04:57:01.146Z,-0.1
2024-02-29T04:58:01.419Z,-0.1
2024-02-29T04:59:01.095Z,-0.2
2024-02-29T05:00:01.347Z,-0.3
2024-02-29T05:01:01.495Z,-0.4
2024-02-29T05:02:08.367Z,-0.4
2024-02-29T05:04:01.896Z,-0.2
2024-02-29T05:05:01.224Z,-0.2
2024-02-29T05:06:01.340Z,-0.1
2024-02-29T05:07:01.487Z,-0.2
2024-02-29T05:09:01.299Z,-0.2
2024-02-29T05:10:01.796Z,-0.1
2024-02-29T05:13:01.703Z,-0.1
2024-02-29T05:14:01.172Z,0
2024-02-29T05:15:01.218Z,-0.1
2024-02-29T05:16:01.489Z,-0.2
2024-02-29T05:17:01.341Z,-0.2
2024-02-29T05:18:02.091Z,-0.3
2024-02-29T05:19:01.196Z,-0.4
2024-02-29T05:20:01.338Z,-0.4
2024-02-29T05:21:01.091Z,-0.3
2024-02-29T05:22:01.505Z,-0.4
2024-02-29T05:23:01.095Z,-0.4
2024-02-29T05:24:01.175Z,-0.2
2024-02-29T05:25:01.512Z,-0.2
2024-02-29T05:26:01.154Z,-0.2
2024-02-29T05:27:01.229Z,-0.2
2024-02-29T05:28:01.500Z,-0.2
2024-02-29T05:29:01.172Z,-0.2
2024-02-29T05:30:01.288Z,-0.2
2024-02-29T05:31:01.501Z,-0.2
2024-02-29T05:32:01.161Z,-0.3
2024-02-29T05:33:01.430Z,-0.2
2024-02-29T05:34:01.324Z,-0.2
2024-02-29T05:35:01.205Z,-0.3
2024-02-29T05:36:01.308Z,-0.3
2024-02-29T05:37:01.275Z,-0.2
2024-02-29T05:38:01.124Z,-0.2
2024-02-29T05:39:01.214Z,-0.3
2024-02-29T05:40:01.857Z,-0.3
2024-02-29T05:42:01.180Z,-0.4
2024-02-29T05:43:01.685Z,-0.4
2024-02-29T05:44:01.079Z,-0.4
2024-02-29T05:45:01.338Z,-0.4
2024-02-29T05:46:01.608Z,-0.5
2024-02-29T05:47:01.198Z,-0.6
2024-02-29T05:48:01.537Z,-0.5
2024-02-29T05:49:01.531Z,-0.4
2024-02-29T05:50:01.333Z,-0.4
2024-02-29T05:51:01.149Z,-0.3
2024-02-29T05:52:01.517Z,-0.4
2024-02-29T05:53:01.110Z,-0.3
2024-02-29T05:54:01.223Z,0
2024-02-29T05:55:01.925Z,0.2
2024-02-29T05:56:01.158Z,0.2
2024-02-29T05:57:07.007Z,0.4
2024-02-29T05:59:01.159Z,0.3
2024-02-29T06:00:01.273Z,0.4
2024-02-29T06:01:01.974Z,0.3
2024-02-29T06:02:02.257Z,0.4
2024-02-29T06:04:01.846Z,0.2
2024-02-29T06:05:01.190Z,0.1
2024-02-29T06:06:01.203Z,0.1
2024-02-29T06:07:01.462Z,0.1
2024-02-29T06:09:01.268Z,0.1
2024-02-29T06:10:01.636Z,0.1
2024-02-29T06:11:01.313Z,0.2
2024-02-29T06:12:01.381Z,0.4
2024-02-29T06:13:01.555Z,0.4
2024-02-29T06:14:01.155Z,0.4
2024-02-29T06:15:01.184Z,0.4
2024-02-29T06:16:01.486Z,0.4
2024-02-29T06:17:01.151Z,0.4
2024-02-29T06:18:01.499Z,0.4
2024-02-29T06:19:01.349Z,0.4
2024-02-29T06:20:01.198Z,0.3
2024-02-29T06:21:01.160Z,0.2
2024-02-29T06:22:01.550Z,0.3
2024-02-29T06:23:01.171Z,0.4
2024-02-29T06:24:01.145Z,0.4
2024-02-29T06:25:01.562Z,0.4
2024-02-29T06:26:01.145Z,0.6
2024-02-29T06:27:01.202Z,0.6
2024-02-29T06:28:01.619Z,0.6
2024-02-29T06:29:01.150Z,0.5
2024-02-29T06:30:01.202Z,0.6
2024-02-29T06:31:01.586Z,0.6
2024-02-29T06:32:01.115Z,0.6
2024-02-29T06:33:01.880Z,0.5
2024-02-29T06:34:01.354Z,0.4
2024-02-29T06:35:01.234Z,0.4
2024-02-29T06:36:01.166Z,0.4
2024-02-29T06:37:01.402Z,0.4
2024-02-29T06:38:01.184Z,0.4
2024-02-29T06:39:01.195Z,0.5
2024-02-29T06:40:02.416Z,0.5
2024-02-29T06:42:01.204Z,0.6
2024-02-29T06:43:01.478Z,0.7
2024-02-29T06:45:01.361Z,0.8
2024-02-29T06:46:01.371Z,0.8
2024-02-29T06:48:01.567Z,0.9
2024-02-29T06:49:01.362Z,0.9
2024-02-29T06:50:01.403Z,0.9
2024-02-29T06:51:01.091Z,1.1
2024-02-29T06:52:01.549Z,1.2
2024-02-29T06:53:01.108Z,1.2
2024-02-29T06:54:01.179Z,1.2
2024-02-29T06:55:01.443Z,1.2
2024-02-29T06:56:01.166Z,1.4
2024-02-29T06:57:01.232Z,1.5
2024-02-29T06:58:01.579Z,1.6
2024-02-29T07:00:01.245Z,1.6
2024-02-29T07:01:01.709Z,1.6
2024-02-29T07:02:01.652Z,1.6
2024-02-29T07:04:01.531Z,1.7
2024-02-29T07:05:01.265Z,1.7
2024-02-29T07:07:01.531Z,1.6
2024-02-29T07:08:01.151Z,1.7
2024-02-29T07:09:01.224Z,1.7
2024-02-29T07:10:01.911Z,1.7
2024-02-29T07:11:03.584Z,1.7
2024-02-29T07:13:01.540Z,1.8
2024-02-29T07:14:01.114Z,1.8
2024-02-29T07:15:01.193Z,1.8
2024-02-29T07:16:01.584Z,1.8
2024-02-29T07:18:01.566Z,2
2024-02-29T07:19:01.280Z,2
2024-02-29T07:20:01.429Z,1.9
2024-02-29T07:21:01.097Z,2
2024-02-29T07:22:01.495Z,2.1
2024-02-29T07:23:01.111Z,2.2
2024-02-29T07:24:01.174Z,2.2
2024-02-29T07:25:01.509Z,2.2
2024-02-29T07:26:01.185Z,2.2
2024-02-29T07:27:01.207Z,2.2
2024-02-29T07:28:01.602Z,2.2
2024-02-29T07:30:01.342Z,2.2
2024-02-29T07:31:01.565Z,2.3
2024-02-29T07:32:01.184Z,2.4
2024-02-29T07:33:01.435Z,2.4
2024-02-29T07:34:01.528Z,2.4
2024-02-29T07:35:01.231Z,2.4
2024-02-29T07:36:01.233Z,2.4
2024-02-29T07:37:01.409Z,2.4
2024-02-29T07:38:01.129Z,2.4
2024-02-29T07:39:01.212Z,2.4
2024-02-29T07:40:02.513Z,2.4
2024-02-29T07:42:01.136Z,2.5
2024-02-29T07:43:01.630Z,2.5
2024-02-29T07:44:01.195Z,2.6
2024-02-29T07:46:01.703Z,2.6
2024-02-29T07:48:01.729Z,2.6
2024-02-29T07:50:01.206Z,2.7
2024-02-29T07:51:01.171Z,2.8
2024-02-29T07:52:01.602Z,2.8
2024-02-29T07:53:01.229Z,2.9
2024-02-29T07:55:01.908Z,3
2024-02-29T07:56:01.160Z,2.9
2024-02-29T07:57:01.183Z,3
2024-02-29T07:58:01.555Z,3.1
2024-02-29T08:00:01.283Z,3.2
2024-02-29T08:01:02.034Z,3.2
2024-02-29T08:02:01.745Z,3.3
2024-02-29T08:03:01.159Z,3.4
2024-02-29T08:04:01.502Z,3.4
2024-02-29T08:05:01.307Z,3.4
2024-02-29T08:06:01.169Z,3.6
2024-02-29T08:07:01.529Z,3.6
2024-02-29T08:08:01.105Z,3.6
2024-02-29T08:09:01.237Z,3.6
2024-02-29T08:10:01.358Z,3.7
2024-02-29T08:11:01.137Z,3.8
2024-02-29T08:12:01.458Z,3.8
2024-02-29T08:13:01.352Z,3.8
2024-02-29T08:14:01.222Z,3.9
2024-02-29T08:15:01.378Z,3.8
2024-02-29T08:16:01.467Z,3.9
2024-02-29T08:17:01.132Z,3.9
2024-02-29T08:18:01.576Z,3.9
2024-02-29T08:19:01.455Z,3.9
2024-02-29T08:20:01.201Z,4.1
2024-02-29T08:21:01.442Z,4.1
2024-02-29T08:22:01.415Z,4.1
2024-02-29T08:23:01.119Z,4.1
2024-02-29T08:24:01.176Z,4.1
2024-02-29T08:25:01.730Z,4.2
2024-02-29T08:26:01.160Z,4.2
2024-02-29T08:28:01.498Z,4.4
2024-02-29T08:30:01.259Z,4.5
2024-02-29T08:31:01.402Z,4.5
2024-02-29T08:32:01.499Z,4.6
2024-02-29T08:33:01.316Z,4.7
2024-02-29T08:34:01.710Z,4.6
2024-02-29T08:35:01.264Z,4.9
2024-02-29T08:36:01.217Z,4.9
2024-02-29T08:37:01.824Z,4.8
2024-02-29T08:39:01.199Z,4.9
2024-02-29T08:40:01.595Z,4.9
2024-02-29T08:42:01.317Z,5.1
2024-02-29T08:43:01.451Z,5.2
2024-02-29T08:44:01.247Z,5.3
2024-02-29T08:45:01.282Z,5.4
2024-02-29T08:46:01.509Z,5.6
2024-02-29T08:48:01.500Z,5.6
2024-02-29T08:49:05.143Z,5.8
2024-02-29T08:51:01.154Z,6
2024-02-29T08:52:01.501Z,6
2024-02-29T08:54:01.665Z,6.2
2024-02-29T08:55:01.622Z,6.5
2024-02-29T08:56:01.108Z,6.4
2024-02-29T08:57:01.207Z,6.4
2024-02-29T08:58:01.383Z,6.4
2024-02-29T08:59:01.106Z,6.6
2024-02-29T09:00:01.350Z,6.9
2024-02-29T09:01:01.773Z,7.2
2024-02-29T09:02:01.588Z,7.4
2024-02-29T09:03:01.084Z,7.6
2024-02-29T09:04:01.474Z,7.8
2024-02-29T09:06:01.182Z,7.6
2024-02-29T09:07:01.497Z,7.7
2024-02-29T09:09:01.275Z,8.2
2024-02-29T09:10:01.732Z,8.1
2024-02-29T09:11:01.510Z,8.1
2024-02-29T09:12:01.141Z,8.1
2024-02-29T09:13:36.534Z,8.2
2024-02-29T09:15:01.198Z,8.8
2024-02-29T09:16:01.616Z,9.2
2024-02-29T09:17:01.156Z,9
2024-02-29T09:18:01.381Z,9.1
2024-02-29T09:19:05.494Z,9.7
2024-02-29T09:21:01.196Z,9.8
2024-02-29T09:22:01.632Z,9.6
2024-02-29T09:23:01.057Z,9.5
2024-02-29T09:24:01.193Z,9.4
2024-02-29T09:25:01.795Z,9.1
2024-02-29T09:27:01.282Z,8.7
2024-02-29T09:28:01.395Z,8.9
2024-02-29T09:30:01.344Z,9.4
2024-02-29T09:31:01.659Z,8.9
2024-02-29T09:32:01.219Z,8.7
2024-02-29T09:33:01.444Z,8.8
2024-02-29T09:34:01.727Z,9.1
2024-02-29T09:35:01.091Z,9.4
2024-02-29T09:36:01.196Z,9.8
2024-02-29T09:37:01.344Z,9.7
2024-02-29T09:39:01.262Z,9.6
2024-02-29T09:40:06.691Z,9.6
2024-02-29T09:43:01.391Z,10.7
2024-02-29T09:44:01.345Z,10.8
2024-02-29T09:45:01.247Z,10.8
2024-02-29T09:46:01.383Z,10.7
2024-02-29T09:47:01.094Z,10.4
2024-02-29T09:48:01.347Z,10.3
2024-02-29T09:49:01.553Z,11
2024-02-29T09:50:07.071Z,11.2
2024-02-29T09:52:01.540Z,11.4
2024-02-29T09:54:01.359Z,11.8
2024-02-29T09:55:01.621Z,12
2024-02-29T09:56:01.140Z,11.9
2024-02-29T09:57:01.238Z,11.9
2024-02-29T09:58:01.788Z,11.6
2024-02-29T10:00:01.232Z,11.1
2024-02-29T10:01:01.727Z,11.3
2024-02-29T10:02:02.272Z,11.7
2024-02-29T10:04:01.735Z,11.8
2024-02-29T10:06:01.302Z,11.5
2024-02-29T10:07:01.200Z,11.8
2024-02-29T10:08:07.750Z,11.9
2024-02-29T10:10:01.604Z,11.9
2024-02-29T10:12:01.470Z,11.5
2024-02-29T10:13:01.674Z,11.5
2024-02-29T10:15:01.331Z,11.5
2024-02-29T10:16:01.390Z,11.7
2024-02-29T10:17:01.162Z,11.8
2024-02-29T10:18:01.785Z,11.7
2024-02-29T10:20:01.284Z,11.6
2024-02-29T10:21:01.228Z,11.7
2024-02-29T10:22:01.570Z,12
2024-02-29T10:23:01.116Z,12.5
2024-02-29T10:24:01.230Z,12.4
2024-02-29T10:25:01.640Z,13.1
2024-02-29T10:26:01.127Z,13.5
2024-02-29T10:27:01.266Z,14.2
2024-02-29T10:28:01.666Z,14.3
2024-02-29T10:29:01.120Z,14.4
2024-02-29T10:30:01.184Z,14.6
2024-02-29T10:31:01.631Z,14.2
2024-02-29T10:32:01.128Z,13.6
2024-02-29T10:33:01.452Z,13.8
2024-02-29T10:34:01.399Z,13.9
2024-02-29T10:36:01.157Z,13.1
2024-02-29T10:37:01.456Z,13.6
2024-02-29T10:38:01.083Z,14.1
2024-02-29T10:39:01.655Z,14.4
2024-02-29T10:40:08.869Z,14.7
2024-02-29T10:42:01.169Z,14.7
2024-02-29T10:43:01.570Z,14.8
2024-02-29T10:44:01.122Z,15
2024-02-29T10:45:01.291Z,15.1
2024-02-29T10:46:01.416Z,15
2024-02-29T10:48:01.651Z,14.6
2024-02-29T10:49:01.344Z,14.6
2024-02-29T10:50:01.229Z,14.8
2024-02-29T10:51:01.184Z,14.5
2024-02-29T10:52:01.495Z,14.6
2024-02-29T10:53:01.122Z,14.5
2024-02-29T10:54:01.287Z,14.6
2024-02-29T10:55:01.544Z,14.4
2024-02-29T10:56:01.138Z,14.8
2024-02-29T10:57:01.190Z,15.2
2024-02-29T10:58:01.636Z,15.2
2024-02-29T11:00:01.196Z,15.2
2024-02-29T11:01:01.912Z,15.2
2024-02-29T11:02:02.318Z,15.1
2024-02-29T11:04:01.936Z,14.5
2024-02-29T11:06:01.218Z,14.4
2024-02-29T11:07:01.325Z,14.1
2024-02-29T11:08:01.148Z,13.6
2024-02-29T11:09:01.178Z,13.2
2024-02-29T11:10:01.684Z,13.3
2024-02-29T11:12:01.233Z,13.2
2024-02-29T11:13:01.494Z,13
2024-02-29T11:14:01.087Z,13.1
2024-02-29T11:15:01.338Z,12.9
2024-02-29T11:16:01.401Z,12.8
2024-02-29T11:17:01.241Z,12.8
2024-02-29T11:18:01.774Z,12.8
2024-02-29T11:19:01.233Z,12.9
2024-02-29T11:20:01.708Z,13
2024-02-29T11:21:01.135Z,13.1
2024-02-29T11:22:01.539Z,12.9
2024-02-29T11:23:12.356Z,12.9
2024-02-29T11:25:02.403Z,13.1
2024-02-29T11:26:01.352Z,13.3
2024-02-29T11:27:01.215Z,13.3
2024-02-29T11:28:01.303Z,13.4
2024-02-29T11:29:01.137Z,13.4
2024-02-29T11:30:01.325Z,13.3
2024-02-29T11:31:01.315Z,13.1
2024-02-29T11:32:01.301Z,13.2
2024-02-29T11:33:01.360Z,13.4
2024-02-29T11:34:01.509Z,13.4
2024-02-29T11:35:01.249Z,13.4
2024-02-29T11:36:01.199Z,13.4
2024-02-29T11:37:01.325Z,13.2
2024-02-29T11:38:01.172Z,13.3
2024-02-29T11:39:01.280Z,13.3
2024-02-29T11:40:01.481Z,13.2
2024-02-29T11:41:01.106Z,13.3
2024-02-29T11:42:01.211Z,13.6
2024-02-29T11:43:01.580Z,13.6
2024-02-29T11:45:01.277Z,13.5
2024-02-29T11:46:01.465Z,13.7
2024-02-29T11:47:01.288Z,13.4
2024-02-29T11:48:01.626Z,13.4
2024-02-29T11:49:01.450Z,13.2
2024-02-29T11:50:01.944Z,13.1
2024-02-29T11:51:01.086Z,13.3
2024-02-29T11:52:01.521Z,13.5
2024-02-29T11:53:01.124Z,13.4
2024-02-29T11:54:01.282Z,13.4
2024-02-29T11:55:01.505Z,13.4
2024-02-29T11:56:17.767Z,13.4
2024-02-29T11:58:01.490Z,13.5
2024-02-29T12:00:01.235Z,13.4
2024-02-29T12:01:01.716Z,13.4
2024-02-29T12:02:01.485Z,13.2
2024-02-29T12:03:01.220Z,13.2
2024-02-29T12:04:01.472Z,13.2
2024-02-29T12:05:01.340Z,13.2
2024-02-29T12:06:01.103Z,13.1
2024-02-29T12:07:01.407Z,13.3
2024-02-29T12:08:01.182Z,13.2
2024-02-29T12:09:01.159Z,13.5
2024-02-29T12:10:01.392Z,13.4
2024-02-29T12:11:01.560Z,13.2
2024-02-29T12:12:01.184Z,13.1
2024-02-29T12:13:01.693Z,13.1
2024-02-29T12:15:01.215Z,13.4
2024-02-29T12:16:01.487Z,13.4
2024-02-29T12:17:01.135Z,13.7
2024-02-29T12:18:01.335Z,13.8
2024-02-29T12:19:01.385Z,13.6
2024-02-29T12:20:01.162Z,13.3
2024-02-29T12:21:01.291Z,13.2
2024-02-29T12:22:01.401Z,13.2
2024-02-29T12:23:01.146Z,13.2
2024-02-29T12:24:01.239Z,13.2
2024-02-29T12:25:01.555Z,13
2024-02-29T12:27:01.190Z,13.2
2024-02-29T12:28:01.407Z,13.2
2024-02-29T12:29:01.234Z,13.4
2024-02-29T12:30:01.295Z,13.2
2024-02-29T12:31:01.443Z,13.3
2024-02-29T12:32:01.160Z,13.6
2024-02-29T12:33:01.384Z,13.4
2024-02-29T12:34:01.574Z,13.4
2024-02-29T12:36:01.461Z,13.2
2024-02-29T12:37:01.598Z,13.3
2024-02-29T12:39:01.348Z,13.4
2024-02-29T12:40:01.748Z,13.4
2024-02-29T12:41:02.240Z,13.2
2024-02-29T12:43:01.439Z,13.4
2024-02-29T12:44:02.920Z,13.4
2024-02-29T12:45:01.143Z,13.8
2024-02-29T12:46:01.590Z,13.7
2024-02-29T12:47:01.171Z,13.8
2024-02-29T12:48:01.480Z,13.6
2024-02-29T12:49:01.362Z,13.6
2024-02-29T12:50:01.222Z,13.4
2024-02-29T12:52:01.716Z,13.4
2024-02-29T12:53:01.157Z,13.4
2024-02-29T12:54:01.370Z,13.4
2024-02-29T12:55:01.351Z,13.5
2024-02-29T12:57:01.194Z,13.4
2024-02-29T12:58:01.570Z,13.7
2024-02-29T13:00:01.292Z,13.6
2024-02-29T13:01:02.219Z,13.9
2024-02-29T13:02:01.741Z,13.9
2024-02-29T13:04:01.626Z,13.8
2024-02-29T13:05:01.147Z,13.8
2024-02-29T13:06:01.380Z,13.6
2024-02-29T13:07:01.402Z,13.4
2024-02-29T13:08:01.118Z,13.4
2024-02-29T13:09:02.582Z,13.6
2024-02-29T13:10:01.320Z,13.7
2024-02-29T13:11:01.263Z,13.9
2024-02-29T13:12:01.439Z,14
2024-02-29T13:13:12.216Z,13.9
2024-02-29T13:15:01.232Z,13.8
2024-02-29T13:16:02.112Z,13.6
2024-02-29T13:17:01.127Z,13.6
2024-02-29T13:18:02.009Z,13.6
2024-02-29T13:19:01.256Z,13.9
2024-02-29T13:20:01.424Z,13.8
2024-02-29T13:21:07.044Z,13.8
2024-02-29T13:23:01.207Z,13.8
2024-02-29T13:24:01.163Z,13.8
2024-02-29T13:25:01.893Z,14
2024-02-29T13:26:02.956Z,13.9
2024-02-29T13:28:01.485Z,13.8
2024-02-29T13:29:01.115Z,13.9
2024-02-29T13:30:01.241Z,13.8
2024-02-29T13:31:01.429Z,13.8
2024-02-29T13:32:06.282Z,13.9
2024-02-29T13:34:01.307Z,14.4
2024-02-29T13:35:01.194Z,14.4
2024-02-29T13:36:01.194Z,14.2
2024-02-29T13:37:01.366Z,14.2
2024-02-29T13:38:01.291Z,14.1
2024-02-29T13:39:01.141Z,14.1
2024-02-29T13:40:01.726Z,14.1
2024-02-29T13:42:01.126Z,13.9
2024-02-29T13:43:01.718Z,14.1
2024-02-29T13:45:01.260Z,14.1
2024-02-29T13:46:01.542Z,14.1
2024-02-29T13:47:01.129Z,14.2
2024-02-29T13:48:01.504Z,14
2024-02-29T13:49:24.252Z,13.8
2024-02-29T13:51:01.145Z,14.2
2024-02-29T13:52:01.493Z,14
2024-02-29T13:54:01.176Z,14.1
2024-02-29T13:55:01.350Z,14.1
2024-02-29T13:56:01.277Z,14
2024-02-29T13:58:01.459Z,14.1
2024-02-29T13:59:01.118Z,14.1
2024-02-29T14:00:01.304Z,13.9
2024-02-29T14:01:01.818Z,13.9
2024-02-29T14:02:01.663Z,13.9
2024-02-29T14:04:01.413Z,13.9
2024-02-29T14:05:01.336Z,13.9
2024-02-29T14:06:01.739Z,14.1
2024-02-29T14:07:01.276Z,14
2024-02-29T14:08:01.304Z,14.4
2024-02-29T14:09:01.156Z,14.3
2024-02-29T14:10:01.452Z,14.2
2024-02-29T14:11:01.323Z,14.5
2024-02-29T14:12:01.208Z,14.3
2024-02-29T14:13:01.497Z,14.1
2024-02-29T14:14:01.138Z,14
2024-02-29T14:15:01.218Z,13.9
2024-02-29T14:16:02.289Z,14.2
2024-02-29T14:18:01.294Z,14.8
2024-02-29T14:19:01.542Z,14.3
2024-02-29T14:21:01.191Z,14.1
2024-02-29T14:22:01.341Z,14.1
2024-02-29T14:23:01.196Z,14.2
2024-02-29T14:24:01.222Z,14.4
2024-02-29T14:25:01.406Z,14.8
2024-02-29T14:26:01.467Z,14.9
2024-02-29T14:27:01.155Z,14.4
2024-02-29T14:28:01.512Z,14.6
2024-02-29T14:29:02.351Z,14.5
2024-02-29T14:31:01.391Z,14.1
2024-02-29T14:32:01.305Z,14.7
2024-02-29T14:33:01.663Z,14.6
2024-02-29T14:34:01.289Z,14.4
2024-02-29T14:35:01.125Z,14.4
2024-02-29T14:36:01.492Z,14.1
2024-02-29T14:37:01.361Z,14.1
2024-02-29T14:38:01.139Z,14.1
2024-02-29T14:39:01.245Z,14.1
2024-02-29T14:40:02.055Z,14.2
2024-02-29T14:41:01.094Z,13.9
2024-02-29T14:42:01.224Z,13.8
2024-02-29T14:43:01.614Z,14.1
2024-02-29T14:44:01.178Z,13.9
2024-02-29T14:45:01.226Z,13.9
2024-02-29T14:46:01.961Z,13.8
2024-02-29T14:48:01.639Z,13.6
2024-02-29T14:50:01.171Z,13.8
2024-02-29T14:51:01.172Z,13.8
2024-02-29T14:52:01.369Z,13.7
2024-02-29T14:53:01.194Z,13.7
2024-02-29T14:54:01.480Z,13.6
2024-02-29T14:55:01.710Z,13.7
2024-02-29T14:57:01.186Z,13.6
2024-02-29T14:58:01.443Z,13.4
2024-02-29T14:59:01.136Z,13.4
2024-02-29T15:00:01.193Z,13.2
2024-02-29T15:01:01.804Z,13.3
2024-02-29T15:02:02.102Z,13.2
2024-02-29T15:04:01.461Z,13.2
2024-02-29T15:05:01.104Z,13.2
2024-02-29T15:06:01.285Z,13.1
2024-02-29T15:07:01.313Z,13.1
2024-02-29T15:08:01.124Z,13
2024-02-29T15:09:01.248Z,13
2024-02-29T15:10:01.456Z,12.9
2024-02-29T15:11:01.442Z,12.9
2024-02-29T15:12:01.376Z,12.9
2024-02-29T15:13:01.470Z,13
2024-02-29T15:14:01.215Z,13
2024-02-29T15:15:01.231Z,13.1
2024-02-29T15:16:01.737Z,13.2
2024-02-29T15:17:01.096Z,13.1
2024-02-29T15:18:01.496Z,13
2024-02-29T15:19:01.382Z,12.9
2024-02-29T15:21:01.183Z,12.8
2024-02-29T15:22:01.408Z,12.8
2024-02-29T15:23:01.138Z,12.9
2024-02-29T15:24:01.166Z,12.8
2024-02-29T15:25:01.659Z,12.8
2024-02-29T15:27:01.540Z,12.9
2024-02-29T15:28:01.734Z,12.8
2024-02-29T15:29:01.108Z,12.8
2024-02-29T15:30:01.353Z,12.7
2024-02-29T15:31:01.744Z,12.7
2024-02-29T15:32:01.166Z,12.8
2024-02-29T15:33:01.446Z,12.8
2024-02-29T15:34:01.551Z,12.8
2024-02-29T15:36:01.159Z,12.6
2024-02-29T15:37:01.355Z,12.6
2024-02-29T15:38:01.165Z,12.6
2024-02-29T15:39:01.239Z,12.6
2024-02-29T15:40:01.732Z,12.6